createdAt,value
2017-01-04T00:00:48.427Z,954.68
2017-01-04T00:01:48.439Z,954.65
2017-01-04T00:02:48.453Z,954.6
2017-01-04T00:03:48.466Z,954.55
2017-01-04T00:04:48.480Z,954.58
2017-01-04T00:05:48.493Z,954.64
2017-01-04T00:06:48.506Z,954.59
2017-01-04T00:07:48.519Z,954.56
2017-01-04T00:08:48.533Z,954.6
2017-01-04T00:09:48.545Z,954.49
2017-01-04T00:10:48.576Z,954.52
2017-01-04T00:11:48.573Z,954.48
2017-01-04T00:12:48.585Z,954.55
2017-01-04T00:13:48.599Z,954.54
2017-01-04T00:14:48.611Z,954.48
2017-01-04T00:15:48.626Z,954.44
2017-01-04T00:16:48.637Z,954.46
2017-01-04T00:17:48.653Z,954.43
2017-01-04T00:18:48.665Z,954.38
2017-01-04T00:19:48.678Z,954.3
2017-01-04T00:20:48.691Z,954.29
2017-01-04T00:21:48.704Z,954.3
2017-01-04T00:22:48.719Z,954.22
2017-01-04T00:23:48.733Z,954.25
2017-01-04T00:24:48.744Z,954.18
2017-01-04T00:25:48.758Z,954.2
2017-01-04T00:26:48.771Z,954.16
2017-01-04T00:27:48.785Z,954.13
2017-01-04T00:28:48.798Z,954.11
2017-01-04T00:29:48.812Z,954.09
2017-01-04T00:30:48.824Z,954.04
2017-01-04T00:31:48.837Z,954.05
2017-01-04T00:32:48.865Z,954.02
2017-01-04T00:33:48.864Z,954.03
2017-01-04T00:34:48.876Z,954.05
2017-01-04T00:35:48.890Z,954.04
2017-01-04T00:36:48.903Z,954.01
2017-01-04T00:37:48.917Z,954.03
2017-01-04T00:38:48.930Z,954.01
2017-01-04T00:39:48.945Z,953.97
2017-01-04T00:40:48.958Z,953.99
2017-01-04T00:41:48.971Z,954.03
2017-01-04T00:42:48.983Z,953.97
2017-01-04T00:43:49.097Z,953.95
2017-01-04T00:44:49.012Z,953.89
2017-01-04T00:45:49.023Z,953.88
2017-01-04T00:46:49.056Z,953.92
2017-01-04T00:47:49.052Z,953.91
2017-01-04T00:48:49.064Z,953.86
2017-01-04T00:49:49.078Z,953.86
2017-01-04T00:50:49.091Z,953.8
2017-01-04T00:51:49.104Z,953.76
2017-01-04T00:52:49.118Z,953.77
2017-01-04T00:53:49.136Z,953.7
2017-01-04T00:54:49.144Z,953.75
2017-01-04T00:55:49.158Z,953.71
2017-01-04T00:56:49.171Z,953.8
2017-01-04T00:57:49.184Z,953.72
2017-01-04T00:58:49.196Z,953.72
2017-01-04T00:59:49.211Z,953.67
2017-01-04T01:00:49.224Z,953.64
2017-01-04T01:01:49.238Z,953.58
2017-01-04T01:02:49.251Z,953.59
2017-01-04T01:03:49.265Z,953.61
2017-01-04T01:04:49.277Z,953.61
2017-01-04T01:05:49.290Z,953.66
2017-01-04T01:06:49.311Z,953.56
2017-01-04T01:07:49.317Z,953.77
2017-01-04T01:08:49.355Z,953.68
2017-01-04T01:09:49.344Z,953.78
2017-01-04T01:10:49.358Z,953.8
2017-01-04T01:11:49.374Z,953.72
2017-01-04T01:12:49.384Z,953.79
2017-01-04T01:13:49.399Z,953.83
2017-01-04T01:14:49.421Z,953.78
2017-01-04T01:15:49.424Z,953.81
2017-01-04T01:16:49.438Z,953.89
2017-01-04T01:17:49.450Z,953.81
2017-01-04T01:18:49.471Z,953.81
2017-01-04T01:19:49.476Z,953.78
2017-01-04T01:20:49.495Z,953.86
2017-01-04T01:21:49.504Z,953.8
2017-01-04T01:22:49.547Z,953.8
2017-01-04T01:23:49.529Z,953.88
2017-01-04T01:24:49.543Z,953.83
2017-01-04T01:25:49.556Z,953.87
2017-01-04T01:26:49.570Z,953.83
2017-01-04T01:27:49.583Z,953.87
2017-01-04T01:28:49.603Z,953.81
2017-01-04T01:29:49.609Z,953.81
2017-01-04T01:30:49.622Z,953.78
2017-01-04T01:31:49.635Z,953.79
2017-01-04T01:32:49.649Z,953.84
2017-01-04T01:33:49.661Z,953.73
2017-01-04T01:34:49.706Z,953.76
2017-01-04T01:35:49.688Z,953.71
2017-01-04T01:36:49.702Z,953.89
2017-01-04T01:37:49.716Z,953.8
2017-01-04T01:38:49.729Z,953.81
2017-01-04T01:39:49.742Z,953.81
2017-01-04T01:40:49.756Z,953.83
2017-01-04T01:41:49.769Z,953.85
2017-01-04T01:42:49.783Z,953.93
2017-01-04T01:43:49.795Z,953.86
2017-01-04T01:44:49.825Z,953.83
2017-01-04T01:45:49.821Z,953.85
2017-01-04T01:46:49.835Z,953.75
2017-01-04T01:47:49.848Z,953.82
2017-01-04T01:48:49.862Z,953.77
2017-01-04T01:49:49.875Z,953.79
2017-01-04T01:50:49.890Z,953.72
2017-01-04T01:51:49.905Z,953.74
2017-01-04T01:52:49.915Z,953.78
2017-01-04T01:53:49.928Z,953.72
2017-01-04T01:54:49.951Z,953.75
2017-01-04T01:55:49.954Z,953.67
2017-01-04T01:56:49.975Z,953.74
2017-01-04T01:57:49.982Z,953.65
2017-01-04T01:58:50.016Z,953.68
2017-01-04T01:59:50.007Z,953.75
2017-01-04T02:00:50.021Z,953.63
2017-01-04T02:01:50.035Z,953.63
2017-01-04T02:02:50.047Z,953.67
2017-01-04T02:03:50.060Z,953.64
2017-01-04T02:04:50.074Z,953.66
2017-01-04T02:05:50.096Z,953.63
2017-01-04T02:06:50.111Z,953.58
2017-01-04T02:07:50.113Z,953.56
2017-01-04T02:08:50.128Z,953.61
2017-01-04T02:09:50.139Z,953.62
2017-01-04T02:10:50.163Z,953.5
2017-01-04T02:11:50.166Z,953.54
2017-01-04T02:12:50.187Z,953.46
2017-01-04T02:13:50.192Z,953.54
2017-01-04T02:14:50.205Z,953.48
2017-01-04T02:15:50.219Z,953.5
2017-01-04T02:16:50.233Z,953.46
2017-01-04T02:17:50.244Z,953.46
2017-01-04T02:18:50.258Z,953.43
2017-01-04T02:19:50.271Z,953.45
2017-01-04T02:20:50.306Z,953.43
2017-01-04T02:21:50.298Z,953.42
2017-01-04T02:22:50.311Z,953.36
2017-01-04T02:23:50.323Z,953.32
2017-01-04T02:24:50.336Z,953.38
2017-01-04T02:25:50.350Z,953.37
2017-01-04T02:26:50.362Z,953.37
2017-01-04T02:27:50.375Z,953.3
2017-01-04T02:28:50.388Z,953.36
2017-01-04T02:29:50.401Z,953.4
2017-01-04T02:30:50.528Z,953.36
2017-01-04T02:31:50.426Z,953.4
2017-01-04T02:32:50.440Z,953.32
2017-01-04T02:33:50.453Z,953.3
2017-01-04T02:34:50.466Z,953.29
2017-01-04T02:35:50.477Z,953.34
2017-01-04T02:36:50.496Z,953.29
2017-01-04T02:37:50.504Z,953.28
2017-01-04T02:38:50.518Z,953.31
2017-01-04T02:39:50.529Z,953.32
2017-01-04T02:40:50.543Z,953.34
2017-01-04T02:41:50.559Z,953.28
2017-01-04T02:42:50.569Z,953.32
2017-01-04T02:43:50.582Z,953.24
2017-01-04T02:44:50.594Z,953.25
2017-01-04T02:45:50.608Z,953.18
2017-01-04T02:46:50.621Z,953.12
2017-01-04T02:47:50.634Z,953.09
2017-01-04T02:48:50.647Z,953.12
2017-01-04T02:49:50.660Z,953.07
2017-01-04T02:50:50.673Z,953.07
2017-01-04T02:51:50.685Z,953
2017-01-04T02:52:50.699Z,953
2017-01-04T02:53:50.711Z,952.94
2017-01-04T02:54:50.725Z,953
2017-01-04T02:55:50.738Z,952.86
2017-01-04T02:56:50.751Z,952.9
2017-01-04T02:57:50.763Z,952.82
2017-01-04T02:58:50.788Z,952.84
2017-01-04T02:59:50.790Z,952.78
2017-01-04T03:00:50.803Z,952.73
2017-01-04T03:01:50.815Z,952.65
2017-01-04T03:02:50.829Z,952.61
2017-01-04T03:03:50.849Z,952.65
2017-01-04T03:04:50.854Z,952.54
2017-01-04T03:05:50.867Z,952.65
2017-01-04T03:06:50.880Z,952.61
2017-01-04T03:07:50.893Z,952.65
2017-01-04T03:08:50.905Z,952.61
2017-01-04T03:09:50.919Z,952.57
2017-01-04T03:10:50.932Z,952.63
2017-01-04T03:11:50.945Z,952.54
2017-01-04T03:12:50.959Z,952.49
2017-01-04T03:13:50.971Z,952.45
2017-01-04T03:14:50.985Z,952.45
2017-01-04T03:15:50.997Z,952.49
2017-01-04T03:16:51.010Z,952.51
2017-01-04T03:17:51.039Z,952.46
2017-01-04T03:18:51.036Z,952.49
2017-01-04T03:19:51.047Z,952.52
2017-01-04T03:20:51.061Z,952.48
2017-01-04T03:21:51.074Z,952.47
2017-01-04T03:22:51.087Z,952.46
2017-01-04T03:23:51.099Z,952.53
2017-01-04T03:24:51.115Z,952.47
2017-01-04T03:25:51.125Z,952.47
2017-01-04T03:26:51.138Z,952.45
2017-01-04T03:27:51.151Z,952.44
2017-01-04T03:28:51.164Z,952.4
2017-01-04T03:29:51.177Z,952.43
2017-01-04T03:30:51.189Z,952.4
2017-01-04T03:31:51.202Z,952.34
2017-01-04T03:32:51.216Z,952.34
2017-01-04T03:33:51.227Z,952.37
2017-01-04T03:34:51.241Z,952.34
2017-01-04T03:35:51.254Z,952.29
2017-01-04T03:36:51.267Z,952.37
2017-01-04T03:37:51.278Z,952.2
2017-01-04T03:38:51.292Z,952.23
2017-01-04T03:39:51.305Z,952.16
2017-01-04T03:40:51.317Z,952.27
2017-01-04T03:41:51.332Z,952.28
2017-01-04T03:42:51.343Z,952.18
2017-01-04T03:43:51.356Z,952.27
2017-01-04T03:44:51.370Z,952.18
2017-01-04T03:45:51.381Z,952.07
2017-01-04T03:46:51.395Z,952.13
2017-01-04T03:47:51.407Z,952.14
2017-01-04T03:48:51.419Z,952.05
2017-01-04T03:49:51.432Z,952.14
2017-01-04T03:50:51.446Z,952.09
2017-01-04T03:51:51.458Z,952.06
2017-01-04T03:52:51.470Z,952.06
2017-01-04T03:53:51.485Z,952.15
2017-01-04T03:54:51.496Z,952.06
2017-01-04T03:55:51.507Z,951.98
2017-01-04T03:56:51.520Z,952.11
2017-01-04T03:57:51.533Z,951.99
2017-01-04T03:58:51.546Z,951.96
2017-01-04T03:59:51.558Z,951.98
2017-01-04T04:00:51.584Z,951.98
2017-01-04T04:01:51.584Z,952.04
2017-01-04T04:02:51.595Z,952.01
2017-01-04T04:03:51.608Z,951.85
2017-01-04T04:04:51.620Z,951.76
2017-01-04T04:05:51.634Z,951.81
2017-01-04T04:06:51.646Z,951.84
2017-01-04T04:07:51.659Z,951.8
2017-01-04T04:08:51.671Z,951.81
2017-01-04T04:09:51.684Z,951.74
2017-01-04T04:10:51.696Z,951.69
2017-01-04T04:11:51.709Z,951.7
2017-01-04T04:12:51.722Z,951.55
2017-01-04T04:13:51.735Z,951.79
2017-01-04T04:14:51.746Z,951.71
2017-01-04T04:15:51.759Z,951.71
2017-01-04T04:16:51.771Z,951.71
2017-01-04T04:17:51.784Z,951.75
2017-01-04T04:18:51.796Z,951.75
2017-01-04T04:19:51.809Z,951.73
2017-01-04T04:20:51.821Z,951.75
2017-01-04T04:21:51.833Z,951.72
2017-01-04T04:22:51.846Z,951.68
2017-01-04T04:23:51.859Z,951.69
2017-01-04T04:24:51.871Z,951.69
2017-01-04T04:25:51.884Z,951.6
2017-01-04T04:26:51.896Z,951.55
2017-01-04T04:27:51.908Z,951.49
2017-01-04T04:28:51.921Z,951.55
2017-01-04T04:29:51.939Z,951.47
2017-01-04T04:30:51.945Z,951.45
2017-01-04T04:31:51.959Z,951.33
2017-01-04T04:32:51.970Z,951.45
2017-01-04T04:33:51.982Z,951.32
2017-01-04T04:34:51.996Z,951.35
2017-01-04T04:35:52.009Z,951.21
2017-01-04T04:36:52.020Z,951.22
2017-01-04T04:37:52.035Z,951.04
2017-01-04T04:38:52.047Z,951.03
2017-01-04T04:39:52.058Z,951.14
2017-01-04T04:40:52.071Z,951.03
2017-01-04T04:41:52.082Z,951.03
2017-01-04T04:42:52.095Z,951.18
2017-01-04T04:43:52.129Z,950.95
2017-01-04T04:44:52.120Z,950.87
2017-01-04T04:45:52.133Z,950.86
2017-01-04T04:46:52.146Z,950.91
2017-01-04T04:47:52.159Z,950.78
2017-01-04T04:48:52.171Z,950.84
2017-01-04T04:49:52.184Z,950.95
2017-01-04T04:50:52.196Z,950.93
2017-01-04T04:51:52.208Z,950.91
2017-01-04T04:52:52.221Z,950.89
2017-01-04T04:53:52.234Z,950.78
2017-01-04T04:54:52.246Z,950.88
2017-01-04T04:55:52.259Z,950.86
2017-01-04T04:56:52.273Z,950.95
2017-01-04T04:57:52.283Z,951.11
2017-01-04T04:58:52.296Z,951.01
2017-01-04T04:59:52.309Z,950.95
2017-01-04T05:00:52.321Z,951.05
2017-01-04T05:01:52.334Z,950.99
2017-01-04T05:02:52.346Z,950.96
2017-01-04T05:03:52.360Z,950.99
2017-01-04T05:04:52.372Z,951.06
2017-01-04T05:05:52.386Z,951.15
2017-01-04T05:06:52.396Z,951.23
2017-01-04T05:07:52.410Z,951.2
2017-01-04T05:08:52.422Z,951.24
2017-01-04T05:09:52.435Z,951.09
2017-01-04T05:10:52.448Z,951.32
2017-01-04T05:11:52.462Z,951.18
2017-01-04T05:12:52.482Z,951.11
2017-01-04T05:13:52.485Z,951.08
2017-01-04T05:14:52.499Z,951.04
2017-01-04T05:15:52.512Z,951.1
2017-01-04T05:16:52.524Z,951.13
2017-01-04T05:17:52.537Z,951.19
2017-01-04T05:18:52.550Z,951.09
2017-01-04T05:19:52.562Z,951.1
2017-01-04T05:20:52.574Z,951.14
2017-01-04T05:21:52.589Z,951.18
2017-01-04T05:22:52.601Z,951.22
2017-01-04T05:23:52.614Z,951.15
2017-01-04T05:24:52.626Z,951.19
2017-01-04T05:25:52.639Z,951.26
2017-01-04T05:26:52.672Z,951.27
2017-01-04T05:27:52.665Z,951.11
2017-01-04T05:28:52.678Z,950.98
2017-01-04T05:29:52.692Z,950.98
2017-01-04T05:30:52.703Z,951.04
2017-01-04T05:31:52.716Z,951.11
2017-01-04T05:32:52.729Z,950.91
2017-01-04T05:33:52.743Z,950.85
2017-01-04T05:34:52.755Z,950.77
2017-01-04T05:35:52.768Z,950.76
2017-01-04T05:36:52.781Z,950.9
2017-01-04T05:37:52.794Z,950.71
2017-01-04T05:38:52.805Z,950.61
2017-01-04T05:39:52.818Z,950.59
2017-01-04T05:40:52.831Z,950.64
2017-01-04T05:41:52.844Z,950.56
2017-01-04T05:42:52.856Z,950.69
2017-01-04T05:43:52.869Z,950.59
2017-01-04T05:44:52.882Z,950.59
2017-01-04T05:45:52.894Z,950.51
2017-01-04T05:46:52.908Z,950.51
2017-01-04T05:47:52.919Z,950.54
2017-01-04T05:48:52.933Z,950.79
2017-01-04T05:49:52.943Z,950.7
2017-01-04T05:50:52.957Z,950.68
2017-01-04T05:51:52.970Z,950.71
2017-01-04T05:52:52.981Z,950.75
2017-01-04T05:53:52.994Z,950.72
2017-01-04T05:54:53.007Z,950.67
2017-01-04T05:55:53.023Z,950.61
2017-01-04T05:56:53.032Z,950.68
2017-01-04T05:57:53.045Z,950.65
2017-01-04T05:58:53.058Z,950.67
2017-01-04T05:59:53.072Z,950.64
2017-01-04T06:00:53.082Z,950.59
2017-01-04T06:01:53.096Z,950.71
2017-01-04T06:02:53.108Z,950.6
2017-01-04T06:03:53.120Z,950.55
2017-01-04T06:04:53.133Z,950.47
2017-01-04T06:05:53.146Z,950.54
2017-01-04T06:06:53.159Z,950.57
2017-01-04T06:07:53.171Z,950.54
2017-01-04T06:08:53.184Z,950.6
2017-01-04T06:09:53.211Z,950.64
2017-01-04T06:10:53.213Z,950.54
2017-01-04T06:11:53.221Z,950.64
2017-01-04T06:12:53.234Z,950.54
2017-01-04T06:13:53.247Z,950.39
2017-01-04T06:14:53.259Z,950.43
2017-01-04T06:15:53.273Z,950.34
2017-01-04T06:16:53.288Z,950.39
2017-01-04T06:17:53.297Z,950.31
2017-01-04T06:18:53.309Z,950.52
2017-01-04T06:19:53.322Z,950.51
2017-01-04T06:20:53.335Z,950.56
2017-01-04T06:21:53.348Z,950.49
2017-01-04T06:22:53.360Z,950.36
2017-01-04T06:23:53.373Z,950.29
2017-01-04T06:24:53.386Z,950.3
2017-01-04T06:25:53.398Z,950.33
2017-01-04T06:26:53.411Z,950.26
2017-01-04T06:27:53.424Z,950.17
2017-01-04T06:28:53.440Z,950.18
2017-01-04T06:29:53.450Z,950.08
2017-01-04T06:30:53.462Z,950.1
2017-01-04T06:31:53.500Z,950.2
2017-01-04T06:32:53.487Z,950.21
2017-01-04T06:33:53.499Z,950.1
2017-01-04T06:34:53.512Z,950.13
2017-01-04T06:35:53.525Z,950.1
2017-01-04T06:36:53.539Z,950.06
2017-01-04T06:37:53.550Z,950.03
2017-01-04T06:38:53.563Z,950.38
2017-01-04T06:39:53.576Z,949.98
2017-01-04T06:40:53.588Z,950.1
2017-01-04T06:41:53.601Z,950.15
2017-01-04T06:42:53.614Z,950.06
2017-01-04T06:43:53.626Z,950.31
2017-01-04T06:44:53.639Z,950.13
2017-01-04T06:45:53.652Z,950.19
2017-01-04T06:46:53.665Z,950.25
2017-01-04T06:47:53.677Z,950.15
2017-01-04T06:48:53.689Z,950.02
2017-01-04T06:49:53.703Z,950.39
2017-01-04T06:50:53.716Z,950.2
2017-01-04T06:51:53.727Z,950.2
2017-01-04T06:52:53.751Z,950.09
2017-01-04T06:53:53.754Z,950.11
2017-01-04T06:54:53.764Z,950.08
2017-01-04T06:55:53.778Z,950.04
2017-01-04T06:56:53.791Z,950.17
2017-01-04T06:57:53.803Z,950.04
2017-01-04T06:58:53.815Z,949.9
2017-01-04T06:59:53.828Z,949.98
2017-01-04T07:00:53.841Z,949.96
2017-01-04T07:01:53.853Z,949.99
2017-01-04T07:02:53.866Z,949.96
2017-01-04T07:03:53.883Z,949.93
2017-01-04T07:04:53.890Z,950.1
2017-01-04T07:05:53.903Z,949.95
2017-01-04T07:06:53.917Z,950.1
2017-01-04T07:07:53.928Z,950.11
2017-01-04T07:08:53.942Z,950.1
2017-01-04T07:09:53.954Z,950.03
2017-01-04T07:10:53.967Z,950.12
2017-01-04T07:11:53.979Z,950.09
2017-01-04T07:12:53.992Z,950.02
2017-01-04T07:13:54.003Z,950.02
2017-01-04T07:14:54.035Z,950.04
2017-01-04T07:15:54.031Z,950.03
2017-01-04T07:16:54.041Z,950.1
2017-01-04T07:17:54.054Z,949.94
2017-01-04T07:18:54.067Z,949.91
2017-01-04T07:19:54.079Z,949.98
2017-01-04T07:20:54.092Z,949.96
2017-01-04T07:21:54.105Z,950
2017-01-04T07:22:54.117Z,949.91
2017-01-04T07:23:54.131Z,949.96
2017-01-04T07:24:54.142Z,950.05
2017-01-04T07:25:54.156Z,949.9
2017-01-04T07:26:54.167Z,950
2017-01-04T07:27:54.180Z,949.84
2017-01-04T07:28:54.195Z,949.87
2017-01-04T07:29:54.206Z,949.91
2017-01-04T07:30:54.218Z,949.9
2017-01-04T07:31:54.231Z,949.88
2017-01-04T07:32:54.243Z,949.97
2017-01-04T07:33:54.256Z,949.86
2017-01-04T07:34:54.270Z,949.96
2017-01-04T07:35:54.287Z,950.01
2017-01-04T07:36:54.294Z,949.97
2017-01-04T07:37:54.307Z,949.9
2017-01-04T07:38:54.320Z,949.95
2017-01-04T07:39:54.332Z,949.88
2017-01-04T07:40:54.343Z,949.85
2017-01-04T07:41:54.357Z,949.79
2017-01-04T07:42:54.369Z,949.72
2017-01-04T07:43:54.383Z,949.68
2017-01-04T07:44:54.394Z,949.68
2017-01-04T07:45:54.407Z,949.64
2017-01-04T07:46:54.419Z,949.69
2017-01-04T07:47:54.432Z,949.63
2017-01-04T07:48:54.445Z,949.63
2017-01-04T07:49:54.458Z,949.7
2017-01-04T07:50:54.470Z,949.73
2017-01-04T07:51:54.482Z,949.71
2017-01-04T07:52:54.495Z,949.75
2017-01-04T07:53:54.506Z,949.65
2017-01-04T07:54:54.520Z,949.72
2017-01-04T07:55:54.533Z,949.9
2017-01-04T07:56:54.545Z,949.92
2017-01-04T07:57:54.569Z,949.79
2017-01-04T07:58:54.572Z,949.94
2017-01-04T07:59:54.584Z,949.82
2017-01-04T08:00:54.596Z,949.82
2017-01-04T08:01:54.609Z,949.78
2017-01-04T08:02:54.622Z,949.78
2017-01-04T08:03:54.635Z,949.8
2017-01-04T08:04:54.650Z,949.91
2017-01-04T08:05:54.660Z,949.75
2017-01-04T08:06:54.674Z,949.82
2017-01-04T08:07:54.684Z,949.61
2017-01-04T08:08:54.697Z,949.72
2017-01-04T08:09:54.710Z,949.76
2017-01-04T08:10:54.723Z,949.79
2017-01-04T08:11:54.756Z,949.7
2017-01-04T08:12:54.748Z,949.61
2017-01-04T08:13:54.760Z,949.55
2017-01-04T08:14:54.775Z,949.5
2017-01-04T08:15:54.787Z,949.43
2017-01-04T08:16:54.801Z,949.61
2017-01-04T08:17:54.814Z,949.49
2017-01-04T08:18:54.825Z,949.56
2017-01-04T08:19:54.840Z,949.45
2017-01-04T08:20:54.851Z,949.45
2017-01-04T08:21:54.864Z,949.53
2017-01-04T08:22:54.876Z,949.34
2017-01-04T08:23:54.890Z,949.42
2017-01-04T08:24:54.902Z,949.43
2017-01-04T08:25:54.915Z,949.4
2017-01-04T08:26:54.927Z,949.57
2017-01-04T08:27:54.940Z,949.43
2017-01-04T08:28:54.953Z,949.38
2017-01-04T08:29:54.967Z,949.38
2017-01-04T08:30:54.979Z,949.53
2017-01-04T08:31:54.992Z,949.34
2017-01-04T08:32:55.005Z,949.33
2017-01-04T08:33:55.018Z,949.36
2017-01-04T08:34:55.029Z,949.43
2017-01-04T08:35:55.044Z,949.39
2017-01-04T08:36:55.057Z,949.48
2017-01-04T08:37:55.070Z,949.38
2017-01-04T08:38:55.083Z,949.33
2017-01-04T08:39:55.097Z,949.33
2017-01-04T08:40:55.109Z,949.36
2017-01-04T08:41:55.122Z,949.41
2017-01-04T08:42:55.135Z,949.34
2017-01-04T08:43:55.148Z,949.31
2017-01-04T08:44:55.161Z,949.28
2017-01-04T08:45:55.173Z,949.32
2017-01-04T08:46:55.186Z,949.35
2017-01-04T08:47:55.203Z,949.47
2017-01-04T08:48:55.214Z,949.42
2017-01-04T08:49:55.228Z,949.42
2017-01-04T08:50:55.240Z,949.37
2017-01-04T08:51:55.254Z,949.44
2017-01-04T08:52:55.267Z,949.39
2017-01-04T08:53:55.280Z,949.41
2017-01-04T08:54:55.300Z,949.31
2017-01-04T08:55:55.307Z,949.45
2017-01-04T08:56:55.321Z,949.34
2017-01-04T08:57:55.335Z,949.35
2017-01-04T08:58:55.348Z,949.21
2017-01-04T08:59:55.359Z,949.33
2017-01-04T09:00:55.374Z,949.27
2017-01-04T09:01:55.387Z,949.34
2017-01-04T09:02:55.400Z,949.36
2017-01-04T09:03:55.414Z,949.44
2017-01-04T09:04:55.428Z,949.46
2017-01-04T09:05:55.441Z,949.37
2017-01-04T09:06:55.453Z,949.36
2017-01-04T09:07:55.468Z,949.39
2017-01-04T09:08:55.480Z,949.43
2017-01-04T09:09:55.493Z,949.35
2017-01-04T09:10:55.508Z,949.39
2017-01-04T09:11:55.519Z,949.35
2017-01-04T09:12:55.534Z,949.35
2017-01-04T09:13:55.546Z,949.49
2017-01-04T09:14:55.560Z,949.55
2017-01-04T09:15:55.573Z,949.45
2017-01-04T09:16:55.592Z,949.52
2017-01-04T09:17:55.598Z,949.38
2017-01-04T09:18:55.613Z,949.47
2017-01-04T09:19:55.627Z,949.48
2017-01-04T09:20:55.640Z,949.47
2017-01-04T09:21:55.653Z,949.57
2017-01-04T09:22:55.666Z,949.44
2017-01-04T09:23:55.680Z,949.36
2017-01-04T09:24:55.692Z,949.35
2017-01-04T09:25:55.706Z,949.44
2017-01-04T09:26:55.720Z,949.55
2017-01-04T09:27:55.734Z,949.5
2017-01-04T09:28:55.746Z,949.58
2017-01-04T09:29:55.759Z,949.78
2017-01-04T09:30:55.782Z,949.54
2017-01-04T09:31:55.788Z,949.66
2017-01-04T09:32:55.800Z,949.76
2017-01-04T09:33:55.813Z,949.73
2017-01-04T09:34:55.826Z,949.83
2017-01-04T09:35:55.839Z,949.7
2017-01-04T09:36:55.855Z,949.65
2017-01-04T09:37:55.866Z,949.6
2017-01-04T09:38:55.880Z,949.64
2017-01-04T09:39:55.892Z,949.65
2017-01-04T09:40:55.905Z,949.54
2017-01-04T09:41:55.919Z,949.64
2017-01-04T09:42:55.932Z,949.64
2017-01-04T09:43:55.946Z,949.63
2017-01-04T09:44:55.959Z,949.66
2017-01-04T09:45:55.972Z,949.6
2017-01-04T09:46:55.985Z,949.64
2017-01-04T09:47:55.999Z,949.58
2017-01-04T09:48:56.012Z,949.59
2017-01-04T09:49:56.026Z,949.73
2017-01-04T09:50:56.038Z,949.56
2017-01-04T09:51:56.052Z,949.59
2017-01-04T09:52:56.072Z,949.59
2017-01-04T09:53:56.076Z,949.61
2017-01-04T09:54:56.091Z,949.59
2017-01-04T09:55:56.106Z,949.64
2017-01-04T09:56:56.119Z,949.53
2017-01-04T09:57:56.131Z,949.56
2017-01-04T09:58:56.145Z,949.48
2017-01-04T09:59:56.157Z,949.45
2017-01-04T10:00:56.170Z,949.32
2017-01-04T10:01:56.183Z,949.39
2017-01-04T10:02:56.197Z,949.34
2017-01-04T10:03:56.210Z,949.34
2017-01-04T10:04:56.221Z,949.28
2017-01-04T10:05:56.237Z,949.18
2017-01-04T10:06:56.260Z,949.17
2017-01-04T10:07:56.262Z,949.15
2017-01-04T10:08:56.275Z,949.11
2017-01-04T10:09:56.288Z,949.14
2017-01-04T10:10:56.301Z,949.08
2017-01-04T10:11:56.315Z,949.08
2017-01-04T10:12:56.327Z,949.1
2017-01-04T10:13:56.341Z,949.2
2017-01-04T10:14:56.353Z,949.08
2017-01-04T10:15:56.368Z,949.07
2017-01-04T10:16:56.380Z,949.23
2017-01-04T10:17:56.394Z,949
2017-01-04T10:18:56.406Z,949.03
2017-01-04T10:19:56.421Z,949.32
2017-01-04T10:20:56.432Z,949.13
2017-01-04T10:21:56.445Z,948.96
2017-01-04T10:22:56.460Z,948.95
2017-01-04T10:23:56.471Z,949.2
2017-01-04T10:24:56.485Z,949.02
2017-01-04T10:25:56.498Z,949.03
2017-01-04T10:26:56.510Z,949.02
2017-01-04T10:27:56.524Z,948.99
2017-01-04T10:28:56.549Z,949.13
2017-01-04T10:29:56.551Z,949.1
2017-01-04T10:30:56.562Z,949.08
2017-01-04T10:31:56.577Z,948.95
2017-01-04T10:32:56.590Z,949.06
2017-01-04T10:33:56.603Z,948.98
2017-01-04T10:34:56.614Z,949.17
2017-01-04T10:35:56.628Z,948.96
2017-01-04T10:36:56.642Z,948.91
2017-01-04T10:37:56.655Z,948.81
2017-01-04T10:38:56.668Z,948.93
2017-01-04T10:39:56.682Z,948.76
2017-01-04T10:40:56.696Z,948.78
2017-01-04T10:41:56.707Z,948.75
2017-01-04T10:42:56.741Z,948.67
2017-01-04T10:43:56.733Z,948.74
2017-01-04T10:44:56.747Z,948.7
2017-01-04T10:45:56.760Z,948.62
2017-01-04T10:46:56.772Z,948.79
2017-01-04T10:47:56.787Z,948.73
2017-01-04T10:48:56.798Z,948.78
2017-01-04T10:49:56.812Z,948.77
2017-01-04T10:50:56.825Z,948.65
2017-01-04T10:51:56.838Z,948.74
2017-01-04T10:52:56.851Z,948.65
2017-01-04T10:53:56.864Z,948.47
2017-01-04T10:54:56.878Z,948.63
2017-01-04T10:55:56.891Z,948.58
2017-01-04T10:56:56.903Z,948.56
2017-01-04T10:57:56.916Z,948.58
2017-01-04T10:58:56.931Z,948.55
2017-01-04T10:59:56.942Z,948.71
2017-01-04T11:00:56.956Z,948.65
2017-01-04T11:01:56.970Z,948.55
2017-01-04T11:02:56.984Z,948.63
2017-01-04T11:03:56.995Z,948.81
2017-01-04T11:04:57.059Z,948.5
2017-01-04T11:05:57.023Z,948.67
2017-01-04T11:06:57.035Z,948.73
2017-01-04T11:07:57.049Z,948.71
2017-01-04T11:08:57.062Z,948.56
2017-01-04T11:09:57.075Z,948.66
2017-01-04T11:10:57.090Z,948.56
2017-01-04T11:11:57.107Z,948.59
2017-01-04T11:12:57.114Z,948.73
2017-01-04T11:13:57.128Z,948.64
2017-01-04T11:14:57.140Z,948.7
2017-01-04T11:15:57.154Z,948.74
2017-01-04T11:16:57.167Z,948.71
2017-01-04T11:17:57.179Z,948.58
2017-01-04T11:18:57.193Z,948.52
2017-01-04T11:19:57.205Z,948.6
2017-01-04T11:20:57.219Z,948.5
2017-01-04T11:21:57.232Z,948.47
2017-01-04T11:22:57.244Z,948.57
2017-01-04T11:23:57.258Z,948.41
2017-01-04T11:24:57.272Z,948.36
2017-01-04T11:25:57.284Z,948.37
2017-01-04T11:26:57.297Z,948.62
2017-01-04T11:27:57.310Z,948.28
2017-01-04T11:28:57.323Z,948.26
2017-01-04T11:29:57.337Z,948.26
2017-01-04T11:30:57.349Z,948.2
2017-01-04T11:31:57.363Z,948.42
2017-01-04T11:32:57.375Z,948.23
2017-01-04T11:33:57.388Z,948.28
2017-01-04T11:34:57.401Z,948.41
2017-01-04T11:35:57.414Z,948.21
2017-01-04T11:36:57.426Z,948.31
2017-01-04T11:37:57.438Z,948.35
2017-01-04T11:38:57.454Z,948.26
2017-01-04T11:39:57.464Z,948.3
2017-01-04T11:40:57.479Z,948.32
2017-01-04T11:41:57.492Z,948.32
2017-01-04T11:42:57.504Z,948.36
2017-01-04T11:43:57.517Z,948.35
2017-01-04T11:44:57.529Z,948.23
2017-01-04T11:45:57.543Z,948.33
2017-01-04T11:46:57.556Z,948.29
2017-01-04T11:47:57.571Z,948.32
2017-01-04T11:48:57.581Z,948.13
2017-01-04T11:49:57.594Z,948.09
2017-01-04T11:50:57.606Z,948.11
2017-01-04T11:51:57.621Z,948.35
2017-01-04T11:52:57.632Z,948.22
2017-01-04T11:53:57.652Z,948.18
2017-01-04T11:54:57.776Z,948.26
2017-01-04T11:55:57.673Z,948.19
2017-01-04T11:56:57.684Z,948.11
2017-01-04T11:57:57.696Z,948.07
2017-01-04T11:58:57.709Z,948.09
2017-01-04T11:59:57.721Z,947.96
2017-01-04T12:00:57.735Z,948.02
2017-01-04T12:01:57.759Z,947.86
2017-01-04T12:02:57.759Z,948.05
2017-01-04T12:03:57.773Z,948.07
2017-01-04T12:04:57.786Z,948.01
2017-01-04T12:05:57.798Z,947.92
2017-01-04T12:06:57.811Z,947.96
2017-01-04T12:07:57.824Z,948.12
2017-01-04T12:08:57.840Z,948.08
2017-01-04T12:09:57.850Z,948.07
2017-01-04T12:10:57.863Z,947.99
2017-01-04T12:11:57.876Z,948
2017-01-04T12:12:57.888Z,948.19
2017-01-04T12:13:57.902Z,948.23
2017-01-04T12:14:57.914Z,948.18
2017-01-04T12:15:57.927Z,948.2
2017-01-04T12:16:57.940Z,948.19
2017-01-04T12:17:57.953Z,948.2
2017-01-04T12:18:57.966Z,948.15
2017-01-04T12:19:57.981Z,948.03
2017-01-04T12:20:57.992Z,948.2
2017-01-04T12:21:58.005Z,948.11
2017-01-04T12:22:58.018Z,948.13
2017-01-04T12:23:58.051Z,948.06
2017-01-04T12:24:58.045Z,948.01
2017-01-04T12:25:58.058Z,948.19
2017-01-04T12:26:58.071Z,948.02
2017-01-04T12:27:58.084Z,948.02
2017-01-04T12:28:58.097Z,948.18
2017-01-04T12:29:58.111Z,948.14
2017-01-04T12:30:58.124Z,948.11
2017-01-04T12:31:58.137Z,948.04